createdAt,value
2024-05-09T00:03:10.891Z,47.27
2024-05-09T00:08:16.672Z,47.04
2024-05-09T00:13:21.317Z,47.28
2024-05-09T00:18:28.582Z,47.84
2024-05-09T00:23:33.251Z,47.75
2024-05-09T00:28:37.840Z,47.93
2024-05-09T00:33:45.129Z,47.90
2024-05-09T00:38:49.754Z,48.27
2024-05-09T00:43:54.280Z,48.05
2024-05-09T00:49:01.693Z,48.55
2024-05-09T00:54:06.507Z,48.00
2024-05-09T00:59:11.316Z,48.38
2024-05-09T01:04:18.666Z,48.16
2024-05-09T01:09:23.232Z,49.15
2024-05-09T01:14:27.789Z,49.28
2024-05-09T01:19:35.476Z,49.58
2024-05-09T01:24:42.801Z,49.01
2024-05-09T01:29:47.306Z,49.43
2024-05-09T01:34:51.852Z,49.64
2024-05-09T01:39:58.992Z,49.17
2024-05-09T01:45:03.490Z,49.47
2024-05-09T01:50:10.802Z,49.56
2024-05-09T01:55:18.130Z,49.58
2024-05-09T02:00:33.798Z,48.74
2024-05-09T02:05:43.773Z,49.28
2024-05-09T02:10:51.514Z,48.52
2024-05-09T02:15:56.112Z,48.61
2024-05-09T02:21:00.843Z,48.77
2024-05-09T02:26:08.252Z,49.25
2024-05-09T02:31:14.317Z,49.32
2024-05-09T02:36:18.877Z,50.00
2024-05-09T02:41:27.028Z,49.31
2024-05-09T02:46:31.671Z,48.86
2024-05-09T02:51:36.181Z,49.87
2024-05-09T02:56:43.348Z,49.39
2024-05-09T03:01:47.980Z,49.91
2024-05-09T03:06:52.691Z,49.82
2024-05-09T03:11:59.982Z,49.42
2024-05-09T03:17:04.685Z,49.10
2024-05-09T03:22:09.266Z,49.09
2024-05-09T03:27:16.506Z,49.68
2024-05-09T03:32:21.118Z,49.55
2024-05-09T03:37:25.716Z,49.70
2024-05-09T03:42:32.848Z,50.40
2024-05-09T03:47:38.284Z,49.77
2024-05-09T03:52:42.945Z,49.82
2024-05-09T03:57:50.141Z,50.44
2024-05-09T04:02:54.748Z,49.65
2024-05-09T04:07:59.356Z,49.73
2024-05-09T04:13:07.756Z,50.06
2024-05-09T04:18:13.399Z,49.90
2024-05-09T04:23:18.005Z,49.73
2024-05-09T04:28:25.677Z,49.99
2024-05-09T04:33:30.725Z,50.88
2024-05-09T04:38:35.496Z,50.59
2024-05-09T04:43:42.718Z,50.61
2024-05-09T04:48:47.302Z,50.32
2024-05-09T04:53:52.015Z,50.38
2024-05-09T04:58:59.188Z,50.77
2024-05-09T05:04:03.795Z,50.59
2024-05-09T05:09:08.519Z,49.96
2024-05-09T05:14:15.807Z,50.85
2024-05-09T05:19:20.492Z,49.90
2024-05-09T05:24:25.214Z,49.76
2024-05-09T05:29:32.381Z,50.14
2024-05-09T05:34:37.074Z,49.38
2024-05-09T05:39:41.603Z,50.07
2024-05-09T05:44:48.721Z,49.99
2024-05-09T05:49:53.230Z,50.08
2024-05-09T05:54:59.588Z,50.64
2024-05-09T06:00:09.752Z,50.60
2024-05-09T06:05:18.558Z,50.38
2024-05-09T06:10:29.637Z,50.22
2024-05-09T06:15:42.355Z,49.48
2024-05-09T06:20:47.193Z,49.62
2024-05-09T06:25:52.324Z,49.38
2024-05-09T06:30:59.518Z,50.15
2024-05-09T06:36:04.044Z,49.64
2024-05-09T06:41:08.761Z,49.56
2024-05-09T06:46:15.970Z,50.09
2024-05-09T06:51:21.222Z,50.05
2024-05-09T06:56:26.195Z,49.33
2024-05-09T07:01:33.524Z,42.38
2024-05-09T07:06:38.149Z,43.13
2024-05-09T07:11:43.629Z,42.85
2024-05-09T07:16:51.237Z,44.04
2024-05-09T07:21:56.193Z,45.02
2024-05-09T07:27:00.750Z,44.94
2024-05-09T07:32:09.256Z,45.39
2024-05-09T07:37:15.774Z,44.62
2024-05-09T07:42:20.343Z,45.33
2024-05-09T07:53:33.226Z,45.49
2024-05-09T07:57:59.919Z,46.23
2024-05-09T08:03:07.492Z,45.50
2024-05-09T08:08:12.120Z,46.56
2024-05-09T08:13:16.784Z,45.53
2024-05-09T08:18:24.219Z,46.82
2024-05-09T08:23:29.717Z,45.38
2024-05-09T08:28:34.311Z,46.55
2024-05-09T08:33:46.598Z,46.39
2024-05-09T08:38:51.919Z,46.15
2024-05-09T08:43:56.428Z,45.54
2024-05-09T08:49:04.101Z,45.63
2024-05-09T08:54:08.835Z,45.68
2024-05-09T08:59:14.022Z,45.80
2024-05-09T09:04:21.440Z,46.43
2024-05-09T09:09:27.286Z,45.38
2024-05-09T09:14:31.809Z,45.35
2024-05-09T09:19:40.264Z,45.80
2024-05-09T09:24:44.913Z,44.96
2024-05-09T09:29:49.482Z,45.23
2024-05-09T09:34:56.918Z,45.84
2024-05-09T09:40:01.756Z,45.40
2024-05-09T09:45:07.756Z,45.01
2024-05-09T09:50:20.365Z,44.64
2024-05-09T09:55:28.416Z,44.69
2024-05-09T10:00:34.021Z,43.95
2024-05-09T10:05:45.029Z,44.37
2024-05-09T10:10:51.684Z,44.01
2024-05-09T10:15:56.439Z,43.26
2024-05-09T10:21:03.645Z,43.48
2024-05-09T10:26:08.303Z,42.43
2024-05-09T10:31:13.909Z,43.05
2024-05-09T10:36:25.065Z,43.20
2024-05-09T10:41:29.599Z,42.60
2024-05-09T10:46:34.250Z,43.12
2024-05-09T10:51:41.599Z,43.63
2024-05-09T10:56:46.286Z,44.75
2024-05-09T11:01:51.137Z,44.57
2024-05-09T11:06:58.352Z,43.66
2024-05-09T11:12:03.043Z,36.17
2024-05-09T11:17:08.518Z,35.38
2024-05-09T11:22:16.110Z,34.39
2024-05-09T11:27:23.399Z,35.95
2024-05-09T11:32:32.702Z,37.57
2024-05-09T11:37:42.710Z,38.01
2024-05-09T11:42:50.835Z,37.84
2024-05-09T11:47:57.019Z,38.85
2024-05-09T11:53:04.244Z,38.71
2024-05-09T11:58:09.106Z,39.21
2024-05-09T12:03:13.782Z,39.77
2024-05-09T12:08:21.094Z,39.87
2024-05-09T12:13:25.852Z,39.97
2024-05-09T12:18:30.772Z,39.27
2024-05-09T12:23:38.073Z,39.28
2024-05-09T12:28:42.600Z,40.04
2024-05-09T12:33:48.485Z,39.68
2024-05-09T12:38:55.739Z,39.97
2024-05-09T12:44:00.251Z,40.31
2024-05-09T12:49:05.069Z,39.70
2024-05-09T12:54:12.470Z,39.93
2024-05-09T12:59:17.020Z,39.00
2024-05-09T13:04:21.941Z,42.00
2024-05-09T13:09:29.220Z,43.58
2024-05-09T13:14:33.854Z,42.79
2024-05-09T13:19:38.415Z,42.20
2024-05-09T13:44:38.466Z,40.51
2024-05-09T13:49:45.891Z,40.88
2024-05-09T13:54:50.550Z,40.65
2024-05-09T13:59:55.123Z,39.80
2024-05-09T14:05:02.618Z,39.96
2024-05-09T14:10:19.464Z,39.90
2024-05-09T14:15:27.791Z,40.46
2024-05-09T14:20:34.985Z,39.16
2024-05-09T14:25:42.795Z,38.65
2024-05-09T14:30:48.975Z,38.85
2024-05-09T14:35:56.427Z,38.36
2024-05-09T14:41:01.162Z,38.11
2024-05-09T14:46:06.181Z,36.91
2024-05-09T14:51:14.014Z,37.22
2024-05-09T14:56:18.924Z,36.66
2024-05-09T15:01:24.986Z,34.84
2024-05-09T15:06:32.942Z,33.82
2024-05-09T15:11:38.160Z,32.39
2024-05-09T15:16:42.853Z,32.17
2024-05-09T15:21:50.327Z,31.40
2024-05-09T15:26:54.996Z,31.01
2024-05-09T15:32:00.038Z,30.64
2024-05-09T15:37:08.605Z,30.44
2024-05-09T15:42:13.732Z,30.06
2024-05-09T15:47:18.664Z,30.83
2024-05-09T15:52:26.354Z,29.55
2024-05-09T15:57:31.352Z,28.90
2024-05-09T16:02:36.444Z,28.46
2024-05-09T16:07:44.091Z,26.86
2024-05-09T16:12:49.108Z,27.41
2024-05-09T16:17:54.035Z,28.11
2024-05-09T16:23:01.269Z,28.89
2024-05-09T16:28:09.062Z,28.73
2024-05-09T16:33:15.454Z,29.04
2024-05-09T16:38:23.096Z,27.66
2024-05-09T16:43:27.980Z,29.85
2024-05-09T16:48:33.051Z,27.58
2024-05-09T16:53:41.388Z,27.55
2024-05-09T16:58:46.547Z,28.98
2024-05-09T17:03:52.211Z,29.54
2024-05-09T17:09:08.285Z,30.26
2024-05-09T17:14:16.977Z,30.94
2024-05-09T17:19:21.971Z,30.41
2024-05-09T17:24:29.611Z,31.68
2024-05-09T17:29:34.201Z,31.69
2024-05-09T17:34:38.851Z,32.08
2024-05-09T17:39:46.258Z,32.55
2024-05-09T17:44:50.927Z,33.37
2024-05-09T17:49:55.622Z,32.45
2024-05-09T17:55:02.960Z,32.37
2024-05-09T18:00:11.599Z,31.91
2024-05-09T18:05:19.242Z,31.58
2024-05-09T18:10:33.722Z,32.71
2024-05-09T18:15:42.162Z,33.03
2024-05-09T18:20:46.969Z,33.63
2024-05-09T18:25:56.354Z,34.52
2024-05-09T18:31:00.913Z,34.71
2024-05-09T18:36:05.549Z,34.71
2024-05-09T18:41:12.920Z,35.46
2024-05-09T18:46:17.525Z,35.99
2024-05-09T18:51:22.174Z,35.85
2024-05-09T18:56:29.597Z,35.42
2024-05-09T19:01:34.380Z,35.90
2024-05-09T19:06:39.301Z,35.98
2024-05-09T19:11:46.676Z,36.48
2024-05-09T19:16:51.336Z,36.48
2024-05-09T19:21:56.435Z,37.01
2024-05-09T19:27:04.501Z,37.78
2024-05-09T19:32:09.656Z,37.46
2024-05-09T19:37:14.403Z,38.17
2024-05-09T19:42:21.871Z,37.97
2024-05-09T19:47:26.591Z,38.03
2024-05-09T19:52:31.186Z,38.21
2024-05-09T19:57:38.399Z,38.52
2024-05-09T20:02:43.172Z,38.01
2024-05-09T20:07:47.803Z,38.18
2024-05-09T20:12:55.136Z,38.19
2024-05-09T20:18:00.785Z,38.56
2024-05-09T20:23:05.870Z,38.77
2024-05-09T20:28:13.132Z,39.18
2024-05-09T20:33:17.820Z,39.31
2024-05-09T20:38:22.434Z,39.54
2024-05-09T20:43:29.828Z,38.72
2024-05-09T20:48:34.585Z,39.08
2024-05-09T20:53:39.292Z,39.25
2024-05-09T20:58:46.593Z,39.32
2024-05-09T21:03:51.311Z,38.97
2024-05-09T21:08:55.958Z,39.13
2024-05-09T21:14:03.227Z,38.83
2024-05-09T21:19:07.967Z,39.14
2024-05-09T21:24:12.545Z,40.19
2024-05-09T21:29:19.717Z,39.32
2024-05-09T21:34:24.349Z,40.50
2024-05-09T21:39:29.315Z,40.34
2024-05-09T21:44:36.624Z,40.23
2024-05-09T21:49:41.265Z,40.18
2024-05-09T21:54:46.780Z,38.92
2024-05-09T21:59:54.140Z,40.03
2024-05-09T22:04:59.631Z,39.67
2024-05-09T22:10:07.991Z,39.78
2024-05-09T22:15:17.073Z,39.28
2024-05-09T22:20:29.012Z,39.79
2024-05-09T22:25:40.868Z,39.69
2024-05-09T22:30:48.219Z,40.01
2024-05-09T22:35:52.972Z,40.14
2024-05-09T22:40:57.530Z,40.77
2024-05-09T22:46:05.415Z,40.48
2024-05-09T22:51:09.987Z,41.29
2024-05-09T22:56:17.070Z,40.81
2024-05-09T23:01:26.785Z,40.96
2024-05-09T23:06:31.581Z,41.62
2024-05-09T23:11:36.295Z,41.68
2024-05-09T23:16:43.624Z,41.82
2024-05-09T23:21:48.335Z,41.98
2024-05-09T23:26:52.900Z,41.96
2024-05-09T23:32:00.031Z,42.65
2024-05-09T23:37:04.634Z,43.22
2024-05-09T23:42:09.332Z,42.92
2024-05-09T23:47:16.628Z,43.46
2024-05-09T23:52:21.295Z,43.69
2024-05-09T23:57:25.928Z,43.51
